Main page
METAR-TAF:

METAR-TAF

Airports :

Islay Airport

Islay, Scotland

latitude: 55-40-55N, longitude: 006-15-24W, elevation: 16 m

Current weather observation

The report was made 21 minutes ago, at 06:50 UTC
Wind 21 kt from the North/Northwest
Temperature 10°C
Humidity 66%
Pressure 999 hPa
Visibility 10 km or more
Few clouds at a height of 2800 ft

METAR: EGPI 050650Z 33021KT 9999 FEW028 10/04 Q0999

Time: 08:11 (07:11 UTC)

Forecast

The report was made 5 hours and 16 minutes ago, at 01:55 UTC
Forecast valid from 05 at 03 UTC to 05 at 12 UTC
Wind 14 kt from the Northwest
Visibility 10 km or more
Few clouds at a height of 2000 ft
Probability 40% :
Temporary
from 05 at 03 UTC to 05 at 12 UTC
Wind 18 kt from the North/Northwest with gusts up to 28 kt
Visibility: 6000 m
Broken clouds at a height of 1400 ft
rain showers

TAF: EGPI 050155Z 0503/0512 32014KT 9999 FEW020 PROB40 TEMPO 0503/0512 33018G28KT 6000 SHRA BKN014

Weather observations and forecasts of more than 4000 airports (METAR and TAF reports).

The available stations are represented by yellow and red dots on the map.

Hover mouse over dot to see the name of the station.

Then click to see weather observations and forecasts.

To change the map : click on the green buttons with a black cross to zoom in, on the green button with a dash to zoom out, or on the green arrows for adjacent maps.


METAR-TAF: